»·PEaware :: N360BG KRNO-KSFO

N360BG :: KRNO-KSFO

FLIGHT INFORMATION

Flight Status: Arrived
Operator: Privately registered:
United States
More flights under this callsign
Pilot: Brandon G. (13)
Aircraft: BOEING 737-200
(B732)
More flights by this aircraft type
Origin: KRNO Reno/Tahoe Intl
United States
Destination: KSFO San Francisco Intl
United States
More flights between these airports :: More routes between these airports
Route: +ZEFFR6 MRLET LEGGS BDEGA3
File this flight plan on PilotEdge
Remarks:
Altitude:
(Current/Filed)
26,000ft
Speed:
(Current/Filed)
385kts
Departed: 28-Sep-18 04:49 PM
Arrived: 28-Sep-18 05:42 PM
Distance/Time
Traveled:
166nm/0:53
Distance/Time
To Go:
Arrived

Flight Plot

Page will automatically refresh every two minutes.

Flight plan parsing failed; only flown route is shown


Map Options




Map Legend


Flown Route
Filed Route
Departure Airport
Arrival Airport
Navaid (VOR, NDB)
Fix

Horizontal Profiles

Position Reports

Time Latitude Longitude Heading Altitude Ground
Speed
28-Sep-18 16:35 39.504417 -119.774215 16 4415ft 0kts
28-Sep-18 16:36 39.504417 -119.774215 16 4415ft 0kts
28-Sep-18 16:37 39.504417 -119.774215 16 4415ft 0kts
28-Sep-18 16:38 39.504417 -119.774215 16 4415ft 0kts
28-Sep-18 16:39 39.504417 -119.774215 16 4415ft 0kts
28-Sep-18 16:40 39.504417 -119.774215 16 4415ft 0kts
28-Sep-18 16:41 39.504417 -119.774215 16 4415ft 0kts
28-Sep-18 16:42 39.504417 -119.774215 16 4415ft 0kts
28-Sep-18 16:43 39.504417 -119.774215 16 4415ft 0kts
28-Sep-18 16:44 39.504417 -119.774215 16 4415ft 0kts
28-Sep-18 16:45 39.504265 -119.774276 16 4415ft 2kts
28-Sep-18 16:46 39.503979 -119.774522 72 4415ft 0kts
28-Sep-18 16:47 39.503979 -119.774521 72 4415ft 0kts
28-Sep-18 16:48 39.503920 -119.773869 102 4415ft 10kts
28-Sep-18 16:49 39.507227 -119.771501 358 4415ft 20kts
28-Sep-18 16:50 39.513368 -119.771456 15 4421ft 22kts
28-Sep-18 16:51 39.499409 -119.769234 179 4409ft 152kts
28-Sep-18 16:52 39.450263 -119.769275 180 6516ft 194kts
28-Sep-18 16:53 39.389693 -119.769491 181 8638ft 248kts
28-Sep-18 16:54 39.308775 -119.774218 192 9804ft 343kts
28-Sep-18 16:55 39.216017 -119.799880 193 13076ft 349kts
28-Sep-18 16:56 39.146244 -119.874524 259 15593ft 358kts
28-Sep-18 16:57 39.158168 -120.002016 279 18072ft 366kts
28-Sep-18 16:58 39.179002 -120.131326 279 20094ft 375kts
28-Sep-18 16:59 39.201027 -120.263513 279 21940ft 380kts
28-Sep-18 17:00 39.223233 -120.397175 279 23658ft 383kts
28-Sep-18 17:01 39.245400 -120.531560 279 25210ft 385kts
28-Sep-18 17:02 39.266822 -120.662378 278 26259ft 383kts
28-Sep-18 17:03 39.285502 -120.777530 278 26302ft 406kts
28-Sep-18 17:04 39.312652 -120.944549 278 26277ft 409kts
28-Sep-18 17:05 39.324564 -121.086016 250 26039ft 394kts
28-Sep-18 17:06 39.277108 -121.183315 228 26010ft 390kts
28-Sep-18 17:07 39.206776 -121.294841 226 26204ft 411kts
28-Sep-18 17:08 39.120268 -121.427436 226 26212ft 420kts
28-Sep-18 17:09 39.072645 -121.500004 226 26239ft 422kts
28-Sep-18 17:10 38.996483 -121.615690 226 26306ft 425kts
28-Sep-18 17:11 38.939981 -121.701260 225 26141ft 407kts
28-Sep-18 17:12 38.877191 -121.796052 225 26005ft 393kts
28-Sep-18 17:13 38.807280 -121.901258 225 25955ft 388kts
28-Sep-18 17:14 38.737800 -122.005477 225 25910ft 383kts
28-Sep-18 17:15 38.669067 -122.108241 225 25881ft 379kts
28-Sep-18 17:16 38.600747 -122.210059 225 25866ft 376kts
28-Sep-18 17:17 38.532944 -122.310784 225 25864ft 374kts
28-Sep-18 17:18 38.465134 -122.411207 225 25871ft 372kts
28-Sep-18 17:19 38.398522 -122.510176 225 25859ft 371kts
28-Sep-18 17:20 38.331897 -122.609010 225 25316ft 366kts
28-Sep-18 17:21 38.265737 -122.706872 225 22676ft 352kts
28-Sep-18 17:22 38.181956 -122.748382 174 19853ft 339kts
28-Sep-18 17:23 38.091169 -122.727725 169 17460ft 330kts
28-Sep-18 17:24 38.003063 -122.703050 167 15095ft 322kts
28-Sep-18 17:25 37.917270 -122.678303 165 12864ft 312kts
28-Sep-18 17:26 37.854510 -122.623787 143 11971ft 280kts
28-Sep-18 17:27 37.795990 -122.563123 142 11001ft 251kts
28-Sep-18 17:28 37.747304 -122.511968 142 11041ft 264kts
28-Sep-18 17:29 37.688255 -122.449290 142 11005ft 278kts
28-Sep-18 17:30 37.630881 -122.388348 142 11001ft 273kts
28-Sep-18 17:31 37.570163 -122.344057 155 9959ft 270kts
28-Sep-18 17:32 37.503270 -122.301453 156 8263ft 270kts
28-Sep-18 17:33 37.439347 -122.251306 131 6493ft 282kts
28-Sep-18 17:34 37.409214 -122.164419 112 6052ft 258kts
28-Sep-18 17:35 37.380461 -122.082489 98 5991ft 256kts
28-Sep-18 17:36 37.423302 -122.033890 349 6012ft 231kts
28-Sep-18 17:37 37.475892 -122.071759 323 5547ft 207kts
28-Sep-18 17:38 37.513759 -122.121570 298 4288ft 198kts
28-Sep-18 17:39 37.539455 -122.181254 298 3151ft 198kts
28-Sep-18 17:40 37.562250 -122.235078 297 2205ft 143kts
28-Sep-18 17:41 37.580224 -122.277782 295 1427ft 139kts
28-Sep-18 17:42 37.597981 -122.320015 294 682ft 130kts
28-Sep-18 17:43 37.614532 -122.359390 293 28ft 118kts
28-Sep-18 17:44 37.623843 -122.380962 318 28ft 33kts
28-Sep-18 17:45 37.626038 -122.383082 333 21ft 11kts
28-Sep-18 17:46 37.628406 -122.382448 288 16ft 0kts
28-Sep-18 17:47 37.628406 -122.382448 288 16ft 0kts
28-Sep-18 17:48 37.628406 -122.382448 288 16ft 0kts

Navigation Log

Ident Type
Flight plan parsing failed, navigation log unavailable